Strona główna
METAR-TAF:

METAR-TAF

Lotnisko :

Brooks Field

Marshall, Michigan, Stany Zjednoczone

Szerokość geograficzna: 42-15-04N, Długość geograficzna: 084-57-20W, wysokość: 287 m

Aktualna obserwacja pogody

Raport powstał 22 minut temu, godzina 00:55 UTC
Cisza
Temperatura 6°C
Wilgotność 87%
Ciśnienie 1018 hPa
Widzialność: 16.1 km
Zachmurzenie całkowite na wysokości 900 ft

METAR: KRMY 050055Z AUTO 00000KT 10SM OVC009 06/04 A3007 RMK AO2 T00630041

czas: 21:17 (01:17 UTC)


TAF: brakujący

Obserwacja i prognoza pogody dla ponad 4000 lotnisk (raport METAR i TAF).

Dostępne stacje oznaczono żółtymi i czerwonymi punktami na mapie.

Najedź kursorem aby zobaczyć nazwę stacji.

Kliknij aby zobaczyć obserwacje i prognozy pogody.

Aby zmienić mapę: kliknij na zielony przycisk z czarnym krzyżykiem, aby powiększyć; na zielony przycisk z myślnikiem, aby pomniejszyć; na zielone strzałki, aby przejść do map sąsiednich.


METAR-TAF: